Time;durP1;ratioP1;P1;durP2;ratioP2;P2;SDS_P1;SDS_P2;PMS_P1;PMS_P2;Temp;Humidity;BMP_temperature;BMP_pressure;BME280_temperature;BME280_humidity;BME280_pressure;Samples;Min_cycle;Max_cycle;Signal;HPM_P1;HPM_P2
2021/12/11 00:00:17;;;;;;;19.25;9.43;;;-2.70;99.90;;;;;;5040404;28;20049;-87
2021/12/11 00:02:45;;;;;;;19.70;9.73;;;-2.70;99.90;;;;;;5056310;28;20044;-86
2021/12/11 00:05:15;;;;;;;19.80;9.73;;;-1.40;99.90;;;;;;5057089;28;20048;-87
2021/12/11 00:07:42;;;;;;;22.70;10.07;;;-2.70;99.90;;;;;;5057397;28;20048;-87
2021/12/11 00:10:23;;;;;;;25.05;10.45;;;-2.50;99.90;;;;;;5063362;28;20051;-88
2021/12/11 00:12:55;;;;;;;16.50;8.95;;;-2.60;99.90;;;;;;5057206;28;20089;-87
2021/12/11 00:15:28;;;;;;;20.00;10.60;;;-2.70;99.90;;;;;;5056341;28;20473;-87
2021/12/11 00:18:01;;;;;;;18.42;8.13;;;-2.70;99.90;;;;;;5054027;28;20049;-87
2021/12/11 00:20:33;;;;;;;17.13;7.50;;;-2.90;99.90;;;;;;5049573;28;20040;-86
2021/12/11 00:22:59;;;;;;;15.48;6.97;;;-0.50;99.90;;;;;;5073520;28;20131;-86
2021/12/11 00:25:26;;;;;;;16.30;6.13;;;-1.90;99.90;;;;;;5074647;28;20048;-87
2021/12/11 00:28:01;;;;;;;10.63;5.18;;;-2.90;99.90;;;;;;5063175;28;20052;-87
2021/12/11 00:30:31;;;;;;;10.65;5.47;;;-2.90;99.90;;;;;;5056738;28;20044;-88
2021/12/11 00:33:05;;;;;;;9.57;5.20;;;-2.60;99.90;;;;;;5056454;28;20044;-87
2021/12/11 00:35:31;;;;;;;10.80;5.20;;;-3.00;99.90;;;;;;5049091;28;20055;-88
2021/12/11 00:38:25;;;;;;;12.05;5.70;;;-2.50;99.90;;;;;;5056556;28;20051;-87
2021/12/11 00:40:54;;;;;;;13.18;5.60;;;-2.60;99.90;;;;;;5053279;28;20057;-87
2021/12/11 00:43:28;;;;;;;9.40;4.63;;;-3.00;99.90;;;;;;5073670;28;20050;-87
2021/12/11 00:45:56;;;;;;;8.23;3.47;;;-3.90;99.90;;;;;;5060780;28;20037;-88
2021/12/11 00:48:25;;;;;;;8.45;4.82;;;-3.10;99.90;;;;;;5056269;28;20059;-87
2021/12/11 00:50:58;;;;;;;7.57;3.80;;;-3.10;99.90;;;;;;5073759;28;20106;-87
2021/12/11 00:53:35;;;;;;;4.70;2.60;;;-3.50;99.90;;;;;;5056413;28;20053;-87
2021/12/11 00:56:15;;;;;;;5.93;3.47;;;-3.10;99.90;;;;;;5082008;28;20422;-86
2021/12/11 00:58:42;;;;;;;8.13;3.90;;;-3.10;99.90;;;;;;5048913;28;20041;-86
2021/12/11 01:01:08;;;;;;;7.80;3.97;;;-2.50;99.90;;;;;;5056225;28;20037;-85
2021/12/11 01:03:53;;;;;;;8.65;4.00;;;-1.60;99.90;;;;;;5056186;28;20083;-86
2021/12/11 01:06:21;;;;;;;9.17;3.97;;;-3.10;99.90;;;;;;5055600;28;20041;-86
2021/12/11 01:08:57;;;;;;;7.85;3.60;;;-2.00;99.90;;;;;;5074166;28;20395;-86
2021/12/11 01:11:50;;;;;;;6.63;3.47;;;-3.10;99.90;;;;;;5081778;28;20127;-86
2021/12/11 01:14:24;;;;;;;6.70;3.33;;;-2.00;99.90;;;;;;5055713;28;20493;-85
2021/12/11 01:17:20;;;;;;;7.38;3.80;;;-0.50;99.90;;;;;;5049339;28;20493;-86
2021/12/11 01:19:51;;;;;;;6.88;3.58;;;-3.00;99.90;;;;;;5066244;28;20033;-85
2021/12/11 01:22:33;;;;;;;6.05;3.28;;;-3.00;99.90;;;;;;5052369;28;20493;-86
2021/12/11 01:25:24;;;;;;;8.30;3.65;;;-3.00;99.90;;;;;;5053767;28;20045;-85
2021/12/11 01:28:02;;;;;;;5.10;2.88;;;-3.30;99.90;;;;;;5046535;28;20037;-85
2021/12/11 01:30:32;;;;;;;5.78;3.13;;;-2.90;99.90;;;;;;5052264;28;20052;-86
2021/12/11 01:32:59;;;;;;;5.85;2.88;;;-2.80;99.90;;;;;;5047083;28;20390;-85
2021/12/11 01:35:25;;;;;;;5.60;2.53;;;-2.80;99.90;;;;;;5052114;28;20056;-85
2021/12/11 01:38:00;;;;;;;6.40;3.03;;;-2.80;99.90;;;;;;5053717;28;20498;-85
2021/12/11 01:40:30;;;;;;;6.57;3.47;;;-2.60;99.90;;;;;;5052986;28;20089;-86
2021/12/11 01:42:56;;;;;;;5.90;3.17;;;-2.80;99.90;;;;;;5055550;28;20043;-84
2021/12/11 01:45:22;;;;;;;7.13;3.53;;;-2.70;99.90;;;;;;5056284;28;20052;-85
2021/12/11 01:47:48;;;;;;;6.68;3.60;;;-1.90;99.90;;;;;;5052051;28;20485;-86
2021/12/11 01:50:38;;;;;;;6.30;3.03;;;-2.70;99.90;;;;;;5053216;28;20088;-86
2021/12/11 01:53:10;;;;;;;7.93;3.22;;;-2.60;99.90;;;;;;5046086;28;20409;-86
2021/12/11 01:55:42;;;;;;;7.75;4.25;;;-2.60;99.90;;;;;;5052873;28;20069;-86
2021/12/11 01:58:11;;;;;;;6.35;3.42;;;-2.60;99.90;;;;;;5051714;28;20045;-85
2021/12/11 02:00:57;;;;;;;7.10;3.90;;;-2.70;99.90;;;;;;5051873;28;20053;-85
2021/12/11 02:03:26;;;;;;;8.52;3.58;;;-2.40;99.90;;;;;;5052150;28;20037;-85
2021/12/11 02:05:52;;;;;;;4.80;2.97;;;-1.80;99.90;;;;;;5051780;28;20106;-86
2021/12/11 02:08:28;;;;;;;7.30;3.78;;;-2.60;99.90;;;;;;5053041;28;20124;-85
2021/12/11 02:11:09;;;;;;;6.45;3.08;;;-2.50;99.90;;;;;;5051557;28;20464;-85
2021/12/11 02:13:45;;;;;;;7.50;3.08;;;-2.40;99.90;;;;;;5060119;28;20055;-84
2021/12/11 02:16:20;;;;;;;8.55;4.70;;;-1.30;99.90;;;;;;5051447;28;20481;-86
2021/12/11 02:18:49;;;;;;;8.65;4.10;;;-1.50;99.90;;;;;;5066432;28;20098;-86
2021/12/11 02:21:28;;;;;;;9.48;4.00;;;-1.20;99.90;;;;;;5052490;28;20091;-86
2021/12/11 02:24:03;;;;;;;8.20;4.10;;;-2.30;99.90;;;;;;5051552;28;20053;-86
2021/12/11 02:26:32;;;;;;;14.75;5.65;;;-2.50;99.90;;;;;;5034847;28;20047;-87
2021/12/11 02:29:19;;;;;;;11.95;5.30;;;-2.50;99.90;;;;;;5051335;28;20052;-87
2021/12/11 02:32:16;;;;;;;11.10;5.88;;;-2.60;99.90;;;;;;5033930;28;20044;-86
2021/12/11 02:34:48;;;;;;;10.95;5.10;;;-2.60;99.90;;;;;;4990695;28;20629;-87
2021/12/11 02:37:34;;;;;;;11.57;4.85;;;-2.70;99.90;;;;;;5010677;28;20510;-87
2021/12/11 02:40:08;;;;;;;8.38;4.55;;;-2.60;99.90;;;;;;5001821;28;20154;-87
2021/12/11 02:42:43;;;;;;;7.30;3.78;;;-0.40;99.90;;;;;;4994338;28;20053;-85
2021/12/11 02:45:31;;;;;;;7.88;3.80;;;-2.60;99.90;;;;;;4996512;28;20160;-86
2021/12/11 02:48:08;;;;;;;8.90;4.10;;;-2.50;99.90;;;;;;4995868;28;20064;-86
2021/12/11 02:50:46;;;;;;;8.48;4.10;;;-1.70;99.90;;;;;;4993802;28;20045;-87
2021/12/11 02:53:19;;;;;;;10.30;3.97;;;-2.00;99.90;;;;;;4994125;28;20085;-86
2021/12/11 02:55:51;;;;;;;9.32;4.22;;;-2.40;99.90;;;;;;5010490;28;20117;-86
2021/12/11 02:58:24;;;;;;;8.65;4.20;;;-2.40;99.90;;;;;;5002866;28;20518;-86
2021/12/11 03:01:20;;;;;;;10.40;4.47;;;-2.40;99.90;;;;;;5010548;28;20050;-86
2021/12/11 03:03:52;;;;;;;7.60;4.15;;;-2.30;99.90;;;;;;4994076;28;20184;-86
2021/12/11 03:06:19;;;;;;;9.65;3.83;;;-2.30;99.90;;;;;;4993885;28;20049;-87
2021/12/11 03:08:47;;;;;;;12.65;6.90;;;-2.20;99.90;;;;;;5010274;28;20124;-85
2021/12/11 03:11:17;;;;;;;14.90;7.20;;;-0.80;99.90;;;;;;5025236;28;20067;-87
2021/12/11 03:13:50;;;;;;;13.00;5.82;;;-0.70;99.90;;;;;;5053589;28;20135;-87
2021/12/11 03:16:20;;;;;;;11.60;5.22;;;-1.20;99.90;;;;;;5054645;28;20037;-87
2021/12/11 03:18:47;;;;;;;10.25;5.15;;;-1.90;99.90;;;;;;5071786;28;20051;-87
2021/12/11 03:21:13;;;;;;;10.05;5.18;;;-1.40;99.90;;;;;;5055692;28;20047;-87
2021/12/11 03:23:40;;;;;;;9.85;4.20;;;-2.00;99.90;;;;;;5053195;28;20053;-87
2021/12/11 03:26:06;;;;;;;10.48;4.53;;;-1.20;99.90;;;;;;5037685;28;20064;-87
2021/12/11 03:28:31;;;;;;;7.50;4.00;;;-1.90;99.90;;;;;;5054342;28;20122;-87
2021/12/11 03:31:00;;;;;;;9.23;4.70;;;-2.00;99.90;;;;;;5037638;28;20048;-86
2021/12/11 03:33:34;;;;;;;8.27;4.13;;;-0.20;99.90;;;;;;5053042;28;20559;-86
2021/12/11 03:36:00;;;;;;;10.65;5.47;;;-1.80;99.90;;;;;;5053993;28;20474;-87
2021/12/11 03:38:26;;;;;;;9.07;4.15;;;-1.80;99.90;;;;;;5063116;28;20040;-87
2021/12/11 03:40:54;;;;;;;11.57;4.30;;;-1.80;99.90;;;;;;5054091;28;20385;-86
2021/12/11 03:43:22;;;;;;;11.02;5.25;;;-1.70;99.90;;;;;;5055661;28;20401;-86
2021/12/11 03:45:52;;;;;;;10.15;4.68;;;-2.20;99.90;;;;;;5057663;28;20036;-87
2021/12/11 03:48:23;;;;;;;8.77;4.72;;;-2.10;99.90;;;;;;5059164;28;20482;-87
2021/12/11 03:50:49;;;;;;;17.83;9.00;;;-1.60;99.90;;;;;;5054072;28;20040;-87
2021/12/11 03:53:15;;;;;;;17.33;8.05;;;-1.60;99.90;;;;;;5063364;28;20490;-86
2021/12/11 03:56:04;;;;;;;14.70;6.72;;;-1.40;99.90;;;;;;5055354;28;20045;-86
2021/12/11 03:58:30;;;;;;;14.13;6.97;;;-1.50;99.90;;;;;;5055544;28;20045;-87
2021/12/11 04:01:06;;;;;;;13.07;5.75;;;-1.20;99.90;;;;;;5058008;28;20090;-86
2021/12/11 04:03:34;;;;;;;11.23;5.60;;;-1.10;99.90;;;;;;5048449;28;20088;-87
2021/12/11 04:06:05;;;;;;;16.08;7.85;;;-1.10;99.90;;;;;;5055039;28;20112;-87
2021/12/11 04:08:40;;;;;;;18.30;8.65;;;0.50;99.90;;;;;;5052501;28;20048;-87
2021/12/11 04:11:11;;;;;;;22.55;10.82;;;-1.50;99.90;;;;;;5053225;28;20128;-87
2021/12/11 04:13:37;;;;;;;20.08;10.07;;;-1.40;99.90;;;;;;5052336;28;20052;-86
2021/12/11 04:16:06;;;;;;;16.95;8.48;;;-1.40;99.90;;;;;;5053362;28;20056;-87
2021/12/11 04:18:32;;;;;;;17.15;7.93;;;-1.50;99.90;;;;;;5059857;28;20069;-88
2021/12/11 04:20:58;;;;;;;14.15;6.50;;;-1.50;99.90;;;;;;5057152;28;20045;-87
2021/12/11 04:23:24;;;;;;;12.40;6.57;;;-0.40;99.90;;;;;;5071914;28;20055;-87
2021/12/11 04:25:52;;;;;;;15.73;8.25;;;-0.70;99.90;;;;;;5074543;28;20090;-87
2021/12/11 04:28:21;;;;;;;14.43;7.03;;;-0.70;99.90;;;;;;5042036;28;20480;-87
2021/12/11 04:30:49;;;;;;;13.82;6.90;;;-1.70;99.90;;;;;;5059249;28;20033;-87
2021/12/11 04:33:16;;;;;;;13.38;6.88;;;-1.60;99.90;;;;;;5057049;28;20044;-86
2021/12/11 04:35:43;;;;;;;13.23;6.30;;;-0.50;99.90;;;;;;5074408;28;20036;-87
2021/12/11 04:38:11;;;;;;;14.48;6.85;;;-0.50;99.90;;;;;;5074626;28;20401;-86
2021/12/11 04:40:50;;;;;;;16.55;7.18;;;-2.40;99.90;;;;;;5074479;28;20032;-87
2021/12/11 04:43:19;;;;;;;13.00;5.95;;;-1.60;99.90;;;;;;5074598;28;20068;-85
2021/12/11 04:46:04;;;;;;;12.45;5.60;;;-0.50;99.90;;;;;;5077156;28;20395;-86
2021/12/11 04:59:25;;;;;;;11.40;5.85;;;-1.80;99.90;;;;;;5074137;28;20052;-86
2021/12/11 05:02:48;;;;;;;11.48;6.00;;;-2.00;99.90;;;;;;5074329;28;20045;-86
2021/12/11 05:07:25;;;;;;;11.70;5.93;;;-0.20;99.90;;;;;;5055922;28;20044;-86
2021/12/11 05:10:14;;;;;;;13.13;6.18;;;-2.00;99.90;;;;;;5056405;28;20060;-87
2021/12/11 05:12:40;;;;;;;14.57;6.25;;;-2.00;99.90;;;;;;5073778;28;20145;-87
2021/12/11 05:15:13;;;;;;;11.93;6.18;;;-2.00;99.90;;;;;;5073898;28;20545;-86
2021/12/11 05:17:39;;;;;;;12.75;6.15;;;-2.00;99.90;;;;;;5055694;28;20477;-87
2021/12/11 05:20:09;;;;;;;12.50;6.05;;;-2.00;99.90;;;;;;5062244;28;20049;-86
2021/12/11 05:22:36;;;;;;;11.93;5.70;;;-1.90;99.90;;;;;;5055563;28;20051;-86
2021/12/11 05:25:04;;;;;;;15.80;6.65;;;-2.00;99.90;;;;;;5073589;28;20497;-87
2021/12/11 05:27:31;;;;;;;11.18;6.15;;;-1.90;99.90;;;;;;5055183;28;20501;-86
2021/12/11 05:29:56;;;;;;;9.38;5.47;;;-1.30;99.90;;;;;;5055593;28;20041;-86
2021/12/11 05:32:25;;;;;;;14.55;6.55;;;-1.90;99.90;;;;;;5073211;28;20049;-87
2021/12/11 05:34:53;;;;;;;12.57;5.65;;;-2.00;99.90;;;;;;5073857;28;20536;-87
2021/12/11 05:37:20;;;;;;;12.60;6.20;;;-2.30;99.90;;;;;;5055578;28;20044;-86
2021/12/11 05:39:46;;;;;;;11.88;5.68;;;-1.70;99.90;;;;;;5062170;28;20041;-86
2021/12/11 05:42:12;;;;;;;18.10;5.93;;;-1.90;99.90;;;;;;5055537;28;20470;-86
2021/12/11 05:44:38;;;;;;;12.88;5.85;;;-2.00;99.90;;;;;;5055597;28;20076;-86
2021/12/11 05:47:05;;;;;;;11.95;5.43;;;-1.90;99.90;;;;;;5055462;28;20052;-86
2021/12/11 05:49:32;;;;;;;11.93;6.10;;;-1.90;99.90;;;;;;5055586;28;20489;-86
2021/12/11 05:51:59;;;;;;;12.73;6.18;;;-1.80;99.90;;;;;;5054705;28;20044;-86
2021/12/11 05:54:27;;;;;;;13.18;6.55;;;-1.00;99.90;;;;;;5055385;28;20044;-85
2021/12/11 05:57:02;;;;;;;13.82;6.45;;;0.10;99.90;;;;;;5058069;28;20043;-86
2021/12/11 05:59:28;;;;;;;11.82;5.72;;;-1.90;99.90;;;;;;5076593;28;20033;-86
2021/12/11 06:02:24;;;;;;;13.30;6.65;;;-1.70;99.90;;;;;;5054858;28;20055;-86
2021/12/11 06:04:52;;;;;;;13.77;6.97;;;-1.70;99.90;;;;;;5055377;28;20053;-86
2021/12/11 06:07:20;;;;;;;18.20;7.15;;;-1.60;99.90;;;;;;5054984;28;20040;-86
2021/12/11 06:09:52;;;;;;;18.58;8.10;;;-1.60;99.90;;;;;;5072608;28;20452;-86
2021/12/11 06:12:19;;;;;;;14.02;6.75;;;-1.50;99.90;;;;;;5054695;28;20105;-86
2021/12/11 06:14:47;;;;;;;14.43;7.03;;;-1.50;99.90;;;;;;5054692;28;20049;-86
2021/12/11 06:17:18;;;;;;;16.25;6.80;;;-1.50;99.90;;;;;;5057972;28;20404;-86
2021/12/11 06:19:50;;;;;;;13.80;7.40;;;-1.00;99.90;;;;;;5058942;28;20044;-86
2021/12/11 06:22:18;;;;;;;14.98;8.07;;;-1.60;99.90;;;;;;5054554;28;20125;-86
2021/12/11 06:24:44;;;;;;;16.55;8.27;;;-1.60;99.90;;;;;;5054269;28;20091;-85
2021/12/11 06:27:10;;;;;;;18.88;7.93;;;-1.60;99.90;;;;;;5072514;28;20090;-85
2021/12/11 06:29:36;;;;;;;15.45;7.95;;;-1.70;99.90;;;;;;5054745;28;20040;-85
2021/12/11 06:32:03;;;;;;;14.68;7.70;;;-1.00;99.90;;;;;;5054073;28;20443;-85
2021/12/11 06:34:29;;;;;;;18.67;8.52;;;-1.60;99.90;;;;;;5054558;28;20052;-86
2021/12/11 06:36:55;;;;;;;16.25;6.55;;;-1.70;99.90;;;;;;5054852;28;20045;-86
2021/12/11 06:39:23;;;;;;;18.95;7.72;;;-1.70;99.90;;;;;;5080559;28;20067;-86
2021/12/11 06:41:54;;;;;;;16.25;7.72;;;-1.50;99.90;;;;;;5037952;28;20048;-86
2021/12/11 06:44:27;;;;;;;15.65;8.13;;;-1.10;99.90;;;;;;5054535;28;20083;-87
2021/12/11 06:46:54;;;;;;;15.07;7.18;;;-1.30;99.90;;;;;;5072556;28;20048;-86
2021/12/11 06:49:21;;;;;;;16.67;7.65;;;-1.60;99.90;;;;;;5054199;28;20051;-87
2021/12/11 06:51:47;;;;;;;18.63;9.00;;;-1.60;99.90;;;;;;5046632;28;20115;-86
2021/12/11 06:54:13;;;;;;;16.75;8.32;;;-1.60;99.90;;;;;;5053999;28;20060;-85
2021/12/11 06:56:40;;;;;;;18.00;7.50;;;-1.60;99.90;;;;;;5053779;28;20064;-85
2021/12/11 06:59:06;;;;;;;14.10;7.20;;;-1.50;99.90;;;;;;5037035;28;20040;-88
2021/12/11 07:01:32;;;;;;;18.20;7.90;;;0.00;99.90;;;;;;5080108;28;20044;-88
2021/12/11 07:03:59;;;;;;;15.85;8.15;;;-1.50;99.90;;;;;;5054394;28;20064;-86
2021/12/11 07:06:27;;;;;;;16.38;7.03;;;-1.00;99.90;;;;;;5072343;28;20037;-86
2021/12/11 07:08:54;;;;;;;14.57;7.15;;;-1.50;99.90;;;;;;5071884;28;20040;-86
2021/12/11 07:11:21;;;;;;;19.00;8.10;;;-1.50;99.90;;;;;;5072418;28;20044;-85
2021/12/11 07:13:47;;;;;;;17.70;8.15;;;-1.00;99.90;;;;;;5037576;28;20044;-85
2021/12/11 07:16:13;;;;;;;21.88;8.75;;;-1.10;99.90;;;;;;5080087;28;20033;-85
2021/12/11 07:18:39;;;;;;;16.70;8.15;;;-1.60;99.90;;;;;;5053851;28;20440;-85
2021/12/11 07:21:06;;;;;;;17.15;7.57;;;-1.10;99.90;;;;;;5072173;28;20446;-85
2021/12/11 07:23:33;;;;;;;19.35;8.55;;;-1.40;99.90;;;;;;5071532;28;20428;-86
2021/12/11 07:26:04;;;;;;;15.73;8.65;;;-0.90;99.90;;;;;;5037471;28;20059;-85
2021/12/11 07:28:31;;;;;;;18.52;8.95;;;-1.50;99.90;;;;;;5053897;28;20040;-86
2021/12/11 07:30:59;;;;;;;16.27;7.80;;;-1.60;99.90;;;;;;5036787;28;20052;-86
2021/12/11 07:33:25;;;;;;;17.42;8.55;;;-0.70;99.90;;;;;;5053875;28;20052;-86
2021/12/11 07:35:52;;;;;;;14.93;6.97;;;-1.60;99.90;;;;;;5059811;28;20036;-86
2021/12/11 07:38:19;;;;;;;14.80;7.07;;;-1.50;99.90;;;;;;5073779;28;20401;-85
2021/12/11 07:40:54;;;;;;;11.70;6.05;;;-1.50;99.90;;;;;;5071971;28;20029;-85
2021/12/11 07:43:23;;;;;;;13.07;6.70;;;-1.50;99.90;;;;;;5072033;28;20044;-85
2021/12/11 07:45:50;;;;;;;15.45;7.85;;;-1.60;99.90;;;;;;5079691;28;20044;-85
2021/12/11 07:48:16;;;;;;;13.65;7.30;;;;;;;;;;5053725;28;20040;-85
2021/12/11 07:50:43;;;;;;;14.98;6.88;;;-1.30;99.90;;;;;;5053443;28;20055;-85
2021/12/11 07:53:09;;;;;;;17.27;7.45;;;-1.50;99.90;;;;;;5053559;28;20040;-85
2021/12/11 07:55:36;;;;;;;15.00;7.82;;;-1.30;99.90;;;;;;5053161;28;20041;-85
2021/12/11 07:58:03;;;;;;;15.68;7.78;;;-1.20;99.90;;;;;;5078477;28;20090;-85
2021/12/11 08:00:30;;;;;;;14.63;6.93;;;-1.20;99.90;;;;;;5071197;28;20443;-83
2021/12/11 08:02:55;;;;;;;14.48;6.57;;;-1.10;99.90;;;;;;5075418;28;20400;-84
2021/12/11 08:05:23;;;;;;;18.08;7.93;;;-0.40;99.90;;;;;;5075245;28;20116;-84
2021/12/11 08:07:49;;;;;;;17.30;8.82;;;-0.70;99.90;;;;;;5075349;28;20154;-85
2021/12/11 08:10:20;;;;;;;18.42;8.85;;;-1.10;99.90;;;;;;5057493;28;20100;-84
2021/12/11 08:12:48;;;;;;;15.20;7.80;;;-1.40;99.90;;;;;;5056945;28;20045;-85
2021/12/11 08:15:15;;;;;;;12.90;7.13;;;-0.30;99.90;;;;;;5079698;28;20392;-84
2021/12/11 08:17:41;;;;;;;24.27;10.20;;;0.20;99.90;;;;;;5077871;28;20059;-84
2021/12/11 08:20:09;;;;;;;20.70;9.43;;;-0.90;99.90;;;;;;5040404;28;20036;-85
2021/12/11 08:22:35;;;;;;;15.48;7.45;;;-0.90;99.90;;;;;;5074767;28;20065;-84
2021/12/11 08:25:03;;;;;;;15.43;7.30;;;-0.20;99.90;;;;;;5074641;28;20075;-84
2021/12/11 08:27:28;;;;;;;23.80;11.32;;;-0.10;99.90;;;;;;5040165;28;20040;-84
2021/12/11 08:29:54;;;;;;;16.73;7.72;;;-0.90;99.90;;;;;;5056617;28;20086;-84
2021/12/11 08:32:21;;;;;;;15.20;7.93;;;-0.90;99.90;;;;;;5074413;28;20037;-83
2021/12/11 08:34:49;;;;;;;16.25;7.97;;;-0.30;99.90;;;;;;5082153;28;20085;-84
2021/12/11 08:37:17;;;;;;;20.85;9.20;;;-0.30;99.90;;;;;;5067029;28;20507;-84
2021/12/11 08:39:43;;;;;;;15.68;8.15;;;-0.20;99.90;;;;;;5074534;28;20493;-84
2021/12/11 08:42:12;;;;;;;19.33;8.02;;;0.40;99.90;;;;;;5074104;28;20431;-84
2021/12/11 08:44:48;;;;;;;17.77;8.57;;;-0.30;99.90;;;;;;5074583;28;20048;-84
2021/12/11 08:47:14;;;;;;;19.13;8.77;;;0.70;99.90;;;;;;5082283;28;20075;-84
2021/12/11 08:49:41;;;;;;;19.05;9.57;;;0.90;99.90;;;;;;5056305;28;20453;-84
2021/12/11 08:52:22;;;;;;;23.70;10.88;;;1.10;99.90;;;;;;5074531;28;20131;-85
2021/12/11 08:54:48;;;;;;;22.77;9.95;;;-0.70;99.90;;;;;;5070128;28;20044;-85
2021/12/11 08:57:18;;;;;;;20.98;10.38;;;-0.60;99.90;;;;;;5055827;28;20093;-84
2021/12/11 08:59:48;;;;;;;23.25;10.73;;;0.20;99.90;;;;;;5074383;28;20044;-84
2021/12/11 09:02:17;;;;;;;18.65;9.70;;;-0.60;99.90;;;;;;5074035;28;20040;-84
2021/12/11 09:04:55;;;;;;;20.70;8.98;;;-0.50;99.90;;;;;;5056425;28;20056;-84
2021/12/11 09:07:41;;;;;;;19.50;10.18;;;-0.50;99.90;;;;;;5073929;28;20400;-83
2021/12/11 09:10:07;;;;;;;18.58;10.70;;;-0.40;99.90;;;;;;5056351;28;20102;-83
2021/12/11 09:12:50;;;;;;;20.90;11.63;;;-0.40;99.90;;;;;;5073616;28;20488;-84
2021/12/11 09:15:20;;;;;;;24.98;12.93;;;-0.30;99.90;;;;;;5072034;28;20036;-84
2021/12/11 09:17:51;;;;;;;21.02;10.48;;;0.00;99.90;;;;;;5073804;28;20041;-83
2021/12/11 09:20:23;;;;;;;20.65;11.13;;;0.40;99.90;;;;;;5073472;28;20054;-84
2021/12/11 09:22:59;;;;;;;18.33;9.10;;;1.10;99.90;;;;;;5073755;28;20055;-84
2021/12/11 09:25:34;;;;;;;18.42;9.88;;;1.00;99.90;;;;;;5072807;28;20045;-86
2021/12/11 09:28:15;;;;;;;17.98;8.13;;;0.00;99.90;;;;;;5073993;28;20044;-85
2021/12/11 09:30:53;;;;;;;23.70;10.45;;;0.00;99.90;;;;;;5052409;28;20033;-85
2021/12/11 09:33:36;;;;;;;19.33;9.52;;;0.10;99.90;;;;;;5070959;28;20480;-87
2021/12/11 09:36:09;;;;;;;19.17;9.23;;;-0.20;99.90;;;;;;5073405;28;20405;-86
2021/12/11 09:38:39;;;;;;;21.80;10.90;;;0.70;99.90;;;;;;5072724;28;20114;-87
2021/12/11 09:44:19;;;;;;;21.40;10.25;;;0.20;99.90;;;;;;5073230;28;20046;-86
2021/12/11 09:46:53;;;;;;;26.90;12.35;;;0.30;99.90;;;;;;5055207;28;20448;-86
2021/12/11 09:49:25;;;;;;;29.80;12.55;;;0.40;99.90;;;;;;5081205;28;20072;-86
2021/12/11 09:52:02;;;;;;;23.52;11.75;;;0.50;99.90;;;;;;5047587;28;20044;-88
2021/12/11 09:54:32;;;;;;;25.48;11.27;;;0.80;99.90;;;;;;5073114;28;20563;-86
2021/12/11 09:57:10;;;;;;;24.38;11.05;;;0.80;99.90;;;;;;5055017;28;20056;-85
2021/12/11 09:59:38;;;;;;;20.92;10.15;;;0.70;99.90;;;;;;5055420;28;20385;-85
2021/12/11 10:02:19;;;;;;;19.42;8.77;;;1.80;99.90;;;;;;5073051;28;20044;-85
2021/12/11 10:04:59;;;;;;;24.65;10.55;;;0.70;99.90;;;;;;5054953;28;20048;-87
2021/12/11 10:07:37;;;;;;;25.48;10.55;;;1.40;99.90;;;;;;5079613;28;20046;-86
2021/12/11 10:10:21;;;;;;;28.60;11.57;;;0.90;99.90;;;;;;5053075;28;20116;-84
2021/12/11 10:12:54;;;;;;;20.17;9.55;;;1.70;99.90;;;;;;5037748;28;20095;-85
2021/12/11 10:15:27;;;;;;;24.23;11.35;;;1.00;99.90;;;;;;5055000;28;20486;-89
2021/12/11 10:18:02;;;;;;;22.65;10.98;;;1.10;99.90;;;;;;5062654;28;20063;-84
2021/12/11 10:20:48;;;;;;;22.38;10.60;;;1.20;99.90;;;;;;5054558;28;20048;-84
2021/12/11 10:23:19;;;;;;;19.50;10.52;;;1.20;99.90;;;;;;5053071;28;20049;-85
2021/12/11 10:25:48;;;;;;;19.48;10.02;;;1.60;99.90;;;;;;5072659;28;20447;-85
2021/12/11 10:28:19;;;;;;;25.13;12.35;;;2.00;99.90;;;;;;5054629;28;20052;-85
2021/12/11 10:30:54;;;;;;;22.75;11.02;;;1.40;99.90;;;;;;5054276;28;20089;-86
2021/12/11 10:33:25;;;;;;;21.38;9.90;;;1.40;99.90;;;;;;5072931;28;20040;-90
2021/12/11 10:35:53;;;;;;;23.73;10.38;;;1.50;99.90;;;;;;5070630;28;20124;-86
2021/12/11 10:38:20;;;;;;;24.33;11.43;;;1.50;99.90;;;;;;5079875;28;20032;-87
2021/12/11 10:40:50;;;;;;;26.45;12.40;;;2.10;99.90;;;;;;5054187;28;20037;-86
2021/12/11 10:43:23;;;;;;;26.40;11.10;;;1.70;99.90;;;;;;5071649;28;20372;-85
2021/12/11 10:45:51;;;;;;;23.65;11.45;;;2.00;99.90;;;;;;5070165;28;20466;-84
2021/12/11 10:48:21;;;;;;;30.25;12.18;;;1.80;99.90;;;;;;5061506;28;20052;-82
2021/12/11 10:50:56;;;;;;;20.35;10.43;;;1.90;99.90;;;;;;5072530;28;20048;-82
2021/12/11 10:53:27;;;;;;;27.63;13.30;;;1.90;99.90;;;;;;5064063;28;20072;-86
2021/12/11 10:55:55;;;;;;;29.08;12.80;;;2.00;99.90;;;;;;5062113;28;20392;-83
2021/12/11 10:58:26;;;;;;;22.30;10.65;;;2.10;99.90;;;;;;5072235;28;20116;-86
2021/12/11 11:01:05;;;;;;;24.17;11.48;;;2.10;99.90;;;;;;5054178;28;20544;-83
2021/12/11 11:03:34;;;;;;;27.50;12.02;;;2.20;99.90;;;;;;5042508;28;20103;-86
2021/12/11 11:06:00;;;;;;;23.80;10.63;;;2.30;99.90;;;;;;5079662;28;20083;-83
2021/12/11 11:08:26;;;;;;;26.63;12.38;;;3.40;99.90;;;;;;5054916;28;20028;-84
2021/12/11 11:10:56;;;;;;;29.48;12.23;;;3.60;99.90;;;;;;5053938;28;20105;-84
2021/12/11 11:13:23;;;;;;;24.48;12.25;;;3.60;99.90;;;;;;5072420;28;20048;-84
2021/12/11 11:15:51;;;;;;;18.73;10.05;;;2.90;99.90;;;;;;5053946;28;20076;-84
2021/12/11 11:18:18;;;;;;;24.70;12.02;;;2.70;99.90;;;;;;5053196;28;20059;-84
2021/12/11 11:20:59;;;;;;;23.02;10.93;;;2.80;99.90;;;;;;5048918;28;20045;-85
2021/12/11 11:23:25;;;;;;;18.63;8.68;;;3.60;99.90;;;;;;5071780;28;20052;-83
2021/12/11 11:25:54;;;;;;;20.58;8.95;;;2.90;99.90;;;;;;5055634;28;20037;-83
2021/12/11 11:28:24;;;;;;;16.10;8.05;;;3.80;99.90;;;;;;5053952;28;20090;-85
2021/12/11 11:31:06;;;;;;;16.35;7.88;;;3.00;99.90;;;;;;5052941;28;20032;-86
2021/12/11 11:33:33;;;;;;;25.85;13.20;;;3.10;99.90;;;;;;5053714;28;20489;-85
2021/12/11 11:36:08;;;;;;;23.60;12.10;;;3.00;99.90;;;;;;5079697;28;20064;-87
2021/12/11 11:38:41;;;;;;;21.50;11.43;;;3.20;99.90;;;;;;5057836;28;20144;-85
2021/12/11 11:41:11;;;;;;;20.40;11.15;;;3.30;99.90;;;;;;5057479;28;20553;-83
2021/12/11 11:43:38;;;;;;;23.13;11.82;;;3.30;99.90;;;;;;5057816;28;20131;-80
2021/12/11 11:46:05;;;;;;;23.70;11.95;;;3.20;99.90;;;;;;5057561;28;20048;-83
2021/12/11 11:48:33;;;;;;;28.00;12.43;;;4.00;99.90;;;;;;5075785;28;20056;-85
2021/12/11 11:51:04;;;;;;;21.80;11.00;;;3.40;99.90;;;;;;5075441;28;20033;-84
2021/12/11 11:53:30;;;;;;;24.67;11.75;;;4.10;99.90;;;;;;5075696;28;20052;-82
2021/12/11 11:56:03;;;;;;;17.80;9.25;;;4.00;99.90;;;;;;5075779;28;20070;-80
2021/12/11 11:58:32;;;;;;;18.98;9.02;;;3.80;99.90;;;;;;5075344;28;20082;-83
2021/12/11 12:01:32;;;;;;;21.38;10.45;;;3.30;99.90;;;;;;5037769;28;20052;-82
2021/12/11 12:04:00;;;;;;;20.65;10.50;;;3.30;99.90;;;;;;4981712;28;20052;-84
2021/12/11 12:06:33;;;;;;;18.73;9.50;;;4.00;99.90;;;;;;5013737;28;20104;-84
2021/12/11 12:09:00;;;;;;;26.52;11.77;;;3.40;99.90;;;;;;5013586;28;20414;-84
2021/12/11 12:11:31;;;;;;;21.02;9.90;;;3.50;99.90;;;;;;5013481;28;20116;-86
2021/12/11 12:13:58;;;;;;;17.20;9.77;;;3.40;99.90;;;;;;5013557;28;20065;-84
2021/12/11 12:16:24;;;;;;;17.63;10.50;;;4.20;99.90;;;;;;4996934;28;20526;-86
2021/12/11 12:23:11;;;;;;;;;;;;;;;;;;;;;
2021/12/11 12:26:06;;;;;;;18.40;9.45;;;4.40;99.90;;;;;;5004159;28;20057;-86
2021/12/11 12:29:28;;;;;;;;;;;;;;;;;;;;;
2021/12/11 12:32:01;;;;;;;16.70;8.60;;;3.90;99.90;;;;;;4972775;28;21724;-85
2021/12/11 12:34:30;;;;;;;20.40;8.98;;;4.00;99.90;;;;;;4994739;28;20081;-93
2021/12/11 12:36:57;;;;;;;23.33;10.75;;;4.20;99.90;;;;;;5013540;28;20089;-86
2021/12/11 12:39:33;;;;;;;15.88;8.65;;;3.60;99.90;;;;;;5012377;28;20065;-83
2021/12/11 12:42:15;;;;;;;15.50;8.88;;;3.50;99.90;;;;;;4980039;28;20093;-85
2021/12/11 12:44:43;;;;;;;24.55;10.43;;;4.00;99.90;;;;;;4996832;28;20534;-84
2021/12/11 12:47:27;;;;;;;18.83;9.65;;;4.60;99.90;;;;;;4979684;28;20064;-84
2021/12/11 12:49:55;;;;;;;16.58;9.10;;;3.50;99.90;;;;;;4996665;28;20086;-84
2021/12/11 12:52:29;;;;;;;19.35;9.25;;;3.50;99.90;;;;;;4996126;28;20054;-85
2021/12/11 12:54:57;;;;;;;17.30;9.73;;;3.50;99.90;;;;;;4996416;28;20112;-85
2021/12/11 12:57:34;;;;;;;19.70;9.15;;;4.30;99.90;;;;;;4996720;28;20088;-85
2021/12/11 13:00:21;;;;;;;19.20;9.85;;;3.40;99.90;;;;;;4996235;28;20050;-85
2021/12/11 13:02:49;;;;;;;16.58;8.98;;;3.30;99.90;;;;;;4995872;28;20050;-84
2021/12/11 13:05:40;;;;;;;16.65;9.48;;;3.30;99.90;;;;;;4996495;28;20042;-85
2021/12/11 13:08:11;;;;;;;15.75;8.90;;;3.20;99.90;;;;;;5037375;28;20132;-85
2021/12/11 13:10:46;;;;;;;15.75;8.45;;;3.20;99.90;;;;;;5074125;28;20052;-84
2021/12/11 13:13:14;;;;;;;16.10;9.37;;;3.00;99.90;;;;;;5056318;28;20048;-86
2021/12/11 13:15:54;;;;;;;13.10;7.50;;;3.60;99.90;;;;;;5056505;28;20051;-85
2021/12/11 13:18:26;;;;;;;15.75;8.25;;;2.90;99.90;;;;;;5073851;28;20492;-86
2021/12/11 13:21:17;;;;;;;16.30;8.63;;;3.10;99.90;;;;;;5059342;28;20060;-85
2021/12/11 13:23:46;;;;;;;14.40;8.35;;;2.90;99.90;;;;;;5001479;28;20050;-87
2021/12/11 13:26:18;;;;;;;16.35;9.20;;;2.90;99.90;;;;;;4986188;28;20507;-81